ENVA/TRD METAR and TAF weather

Enter ICAO airport designator
Station Type Date Time Source
ENVA METAR 2020/04/04 04:50 UTC NOAA

ENVA 040450Z 30011KT 8000 VCSH VV019 M01/M03 Q1006 REFZRA TEMPO 0800 SHSNGS VV006 RMK WIND 670FT 31016KT


Station Type Date Time Source
ENVA Decoded METAR 2020/04/04 04:50 UTC NOAA

Trondheim / Vaernes, Norway (ENVA) 63-28N 010-56E 17M
Apr 04, 2020 - 12:50 AM EDT / 2020.04.04 0450 UTC
Wind: from the WNW (300 degrees) at 13 MPH (11 KT):0
Visibility: 4 mile(s):0
Sky conditions: obscured
Weather: showers in the vicinity
Temperature: 30 F (-1 C)
Windchill: 19 F (-7 C):1
Dew Point: 26 F (-3 C)
Relative Humidity: 86%
Pressure (altimeter): 29.71 in. Hg (1006 hPa)
ob: ENVA 040450Z 30011KT 8000 VCSH VV019 M01/M03 Q1006 REFZRA TEMPO 0800 SHSNGS VV006 RMK WIND 670FT 31016KT
cycle: 5

Station Type Date Time Source
ENVA TAF 2020/04/03 18:57 UTC NOAA

TAF ENVA 031700Z 0318/0418 26018KT 9999 -SHSN FEW015CB BKN030
TEMPO 0318/0415 0800 SHSNGS VV006
BECMG 0415/0418 24008KT

Example: see airport list